createdAt,value
2018-08-24T00:00:16.000Z,76.52
2018-08-24T00:00:36.580Z,76.55
2018-08-24T00:00:56.298Z,76.55
2018-08-24T00:01:16.401Z,76.52
2018-08-24T00:01:37.208Z,76.67
2018-08-24T00:01:56.706Z,76.71
2018-08-24T00:02:17.209Z,76.76
2018-08-24T00:02:37.914Z,76.64
2018-08-24T00:02:57.875Z,76.83
2018-08-24T00:03:18.895Z,76.76
2018-08-24T00:03:38.568Z,76.77
2018-08-24T00:03:58.606Z,76.78
2018-08-24T00:04:19.612Z,76.95
2018-08-24T00:04:38.798Z,77.06
2018-08-24T00:04:58.699Z,77.18
2018-08-24T00:05:19.924Z,77.19
2018-08-24T00:05:39.487Z,77.21
2018-08-24T00:05:59.560Z,77.14
2018-08-24T00:06:20.342Z,77.18
2018-08-24T00:06:39.702Z,77.14
2018-08-24T00:07:00.146Z,77.14
2018-08-24T00:07:21.523Z,77.05
2018-08-24T00:07:40.846Z,77.16
2018-08-24T00:08:01.506Z,77.13
2018-08-24T00:08:22.113Z,77.31
2018-08-24T00:08:41.559Z,77.38
2018-08-24T00:09:02.748Z,77.39
2018-08-24T00:09:22.624Z,77.18
2018-08-24T00:09:42.594Z,77.15
2018-08-24T00:10:03.674Z,77.28
2018-08-24T00:10:23.451Z,77.30
2018-08-24T00:10:43.602Z,77.48
2018-08-24T00:11:04.106Z,77.68
2018-08-24T00:11:23.759Z,77.74
2018-08-24T00:11:43.734Z,77.42
2018-08-24T00:12:04.918Z,77.43
2018-08-24T00:12:24.633Z,77.71
2018-08-24T00:12:44.514Z,77.55
2018-08-24T00:13:05.540Z,77.70
2018-08-24T00:13:25.265Z,77.74
2018-08-24T00:13:45.352Z,77.74
2018-08-24T00:14:06.342Z,77.59
2018-08-24T00:14:25.794Z,77.54
2018-08-24T00:14:46.278Z,77.54
2018-08-24T00:15:07.214Z,77.69
2018-08-24T00:15:27.076Z,77.70
2018-08-24T00:15:47.426Z,77.70
2018-08-24T00:16:07.985Z,77.99
2018-08-24T00:16:27.959Z,77.74
2018-08-24T00:16:49.184Z,78.14
2018-08-24T00:17:08.535Z,77.88
2018-08-24T00:17:28.996Z,77.84
2018-08-24T00:17:50.413Z,77.84
2018-08-24T00:18:09.996Z,77.91
2018-08-24T00:18:29.913Z,77.89
2018-08-24T00:18:50.661Z,77.86
2018-08-24T00:19:10.580Z,77.89
2018-08-24T00:19:31.056Z,77.87
2018-08-24T00:19:52.283Z,78.00
2018-08-24T00:20:11.705Z,78.46
2018-08-24T00:20:32.189Z,78.32
2018-08-24T00:20:52.944Z,78.34
2018-08-24T00:21:12.811Z,78.23
2018-08-24T00:21:33.651Z,78.22
2018-08-24T00:21:53.857Z,78.52
2018-08-24T00:22:13.905Z,78.43
2018-08-24T00:22:34.595Z,78.58
2018-08-24T00:22:54.420Z,78.42
2018-08-24T00:23:14.275Z,78.39
2018-08-24T00:23:35.695Z,78.52
2018-08-24T00:23:55.136Z,78.53
2018-08-24T00:24:15.700Z,78.55
2018-08-24T00:24:36.534Z,78.78
2018-08-24T00:24:56.006Z,78.75
2018-08-24T00:25:16.658Z,78.70
2018-08-24T00:25:37.176Z,78.59
2018-08-24T00:25:56.786Z,78.72
2018-08-24T00:26:16.756Z,78.71
2018-08-24T00:26:37.526Z,79.13
2018-08-24T00:26:57.381Z,79.12
2018-08-24T00:27:17.928Z,79.21
2018-08-24T00:27:38.081Z,79.11
2018-08-24T00:27:58.328Z,79.04
2018-08-24T00:28:18.739Z,79.27
2018-08-24T00:28:38.944Z,79.01
2018-08-24T00:28:59.069Z,79.30
2018-08-24T00:29:19.976Z,79.50
2018-08-24T00:29:39.733Z,79.21
2018-08-24T00:29:59.682Z,79.22
2018-08-24T00:30:21.109Z,79.03
2018-08-24T00:30:40.568Z,79.26
2018-08-24T00:31:01.144Z,79.11
2018-08-24T00:31:21.274Z,79.03
2018-08-24T00:31:41.209Z,79.04
2018-08-24T00:32:01.795Z,79.05
2018-08-24T00:32:22.141Z,79.13
2018-08-24T00:32:42.280Z,79.06
2018-08-24T00:33:02.653Z,79.07
2018-08-24T00:33:22.983Z,79.24
2018-08-24T00:33:42.954Z,79.25
2018-08-24T00:34:04.347Z,79.33
2018-08-24T00:34:24.056Z,79.85
2018-08-24T00:34:43.952Z,79.62
2018-08-24T00:35:05.360Z,79.80
2018-08-24T00:35:24.802Z,79.49
2018-08-24T00:35:45.221Z,79.46
2018-08-24T00:36:06.609Z,79.58
2018-08-24T00:36:26.034Z,79.74
2018-08-24T00:36:46.390Z,79.52
2018-08-24T00:37:07.349Z,79.52
2018-08-24T00:37:27.202Z,79.56
2018-08-24T00:37:47.748Z,79.64
2018-08-24T00:38:07.943Z,79.64
2018-08-24T00:38:27.940Z,79.61
2018-08-24T00:38:49.104Z,79.81
2018-08-24T00:39:08.483Z,79.74
2018-08-24T00:39:28.842Z,79.77
2018-08-24T00:39:50.146Z,79.95
2018-08-24T00:40:09.509Z,79.78
2018-08-24T00:40:30.086Z,79.88
2018-08-24T00:40:50.873Z,80.12
2018-08-24T00:41:10.327Z,79.95
2018-08-24T00:41:30.786Z,79.94
2018-08-24T00:41:51.912Z,80.00
2018-08-24T00:42:11.491Z,79.95
2018-08-24T00:42:31.623Z,80.13
2018-08-24T00:42:52.146Z,80.01
2018-08-24T00:43:11.494Z,79.90
2018-08-24T00:43:31.908Z,79.88
2018-08-24T00:43:52.541Z,80.06
2018-08-24T00:44:12.475Z,80.13
2018-08-24T00:44:32.835Z,80.39
2018-08-24T00:44:53.576Z,80.33
2018-08-24T00:45:13.770Z,80.37
2018-08-24T00:45:34.002Z,80.37
2018-08-24T00:45:54.176Z,80.36
2018-08-24T00:46:14.126Z,80.30
2018-08-24T00:46:35.553Z,80.32
2018-08-24T00:46:54.916Z,80.37
2018-08-24T00:47:15.356Z,80.27
2018-08-24T00:47:36.887Z,80.24
2018-08-24T00:47:55.813Z,80.23
2018-08-24T00:48:16.276Z,80.24
2018-08-24T00:48:37.325Z,80.29
2018-08-24T00:48:56.693Z,80.53
2018-08-24T00:49:17.117Z,80.47
2018-08-24T00:49:37.768Z,80.62
2018-08-24T00:49:57.674Z,80.48
2018-08-24T00:50:18.577Z,80.46
2018-08-24T00:50:38.866Z,80.59
2018-08-24T00:50:58.829Z,80.74
2018-08-24T00:51:19.917Z,80.61
2018-08-24T00:51:39.341Z,80.62
2018-08-24T00:51:59.735Z,80.65
2018-08-24T00:52:21.253Z,80.53
2018-08-24T00:52:40.466Z,80.51
2018-08-24T00:53:00.349Z,80.50
2018-08-24T00:53:21.886Z,80.54
2018-08-24T00:53:40.825Z,80.50
2018-08-24T00:54:01.318Z,80.54
2018-08-24T00:54:22.417Z,80.59
2018-08-24T00:54:41.821Z,80.65
2018-08-24T00:55:02.545Z,80.70
2018-08-24T00:55:22.707Z,80.84
2018-08-24T00:55:42.638Z,80.78
2018-08-24T00:56:03.770Z,80.82
2018-08-24T00:56:23.648Z,80.74
2018-08-24T00:56:43.826Z,80.75
2018-08-24T00:57:04.496Z,80.82
2018-08-24T00:57:24.364Z,80.75
2018-08-24T00:57:44.339Z,80.81
2018-08-24T00:58:05.407Z,80.59
2018-08-24T00:58:24.869Z,80.90
2018-08-24T00:58:45.369Z,80.85
2018-08-24T00:59:06.041Z,80.95
2018-08-24T00:59:25.472Z,80.89
2018-08-24T00:59:45.850Z,81.04
2018-08-24T01:00:07.091Z,80.94
2018-08-24T01:00:26.435Z,81.08
2018-08-24T01:00:46.882Z,81.04
2018-08-24T01:01:07.710Z,81.03
2018-08-24T01:01:27.568Z,81.01
2018-08-24T01:01:48.244Z,81.29
2018-08-24T01:02:08.403Z,81.65
2018-08-24T01:02:28.849Z,81.70
2018-08-24T01:02:49.596Z,81.65
2018-08-24T01:03:09.206Z,81.63
2018-08-24T01:03:29.194Z,81.66
2018-08-24T01:03:50.510Z,81.48
2018-08-24T01:04:09.887Z,81.53
2018-08-24T01:04:30.321Z,81.56
2018-08-24T01:04:51.440Z,81.83
2018-08-24T01:05:10.840Z,81.83
2018-08-24T01:05:31.283Z,81.85
2018-08-24T01:05:52.487Z,81.69
2018-08-24T01:06:12.156Z,81.69
2018-08-24T01:06:32.116Z,81.74
2018-08-24T01:06:52.783Z,81.76
2018-08-24T01:07:12.754Z,81.85
2018-08-24T01:07:33.713Z,82.07
2018-08-24T01:07:54.106Z,82.24
2018-08-24T01:08:14.003Z,82.20
2018-08-24T01:08:35.193Z,82.57
2018-08-24T01:08:54.569Z,82.42
2018-08-24T01:09:14.927Z,82.43
2018-08-24T01:09:36.229Z,82.49
2018-08-24T01:09:55.638Z,82.55
2018-08-24T01:10:16.458Z,82.56
2018-08-24T01:10:56.623Z,82.61
2018-08-24T01:11:16.554Z,82.66
2018-08-24T01:11:37.476Z,82.67
2018-08-24T01:11:57.401Z,82.78
2018-08-24T01:12:18.622Z,82.55
2018-08-24T01:12:38.293Z,82.85
2018-08-24T01:12:58.227Z,82.56
2018-08-24T01:13:19.650Z,82.53
2018-08-24T01:13:39.265Z,82.58
2018-08-24T01:13:59.147Z,82.56
2018-08-24T01:14:20.373Z,82.95
2018-08-24T01:14:39.737Z,82.96
2018-08-24T01:15:00.285Z,83.01
2018-08-24T01:15:21.301Z,82.93
2018-08-24T01:15:40.327Z,82.95
2018-08-24T01:16:00.400Z,82.92
2018-08-24T01:16:21.310Z,82.88
2018-08-24T01:16:40.738Z,82.94
2018-08-24T01:17:01.128Z,82.87
2018-08-24T01:17:22.065Z,83.17
2018-08-24T01:17:41.977Z,83.04
2018-08-24T01:18:02.837Z,83.18
2018-08-24T01:18:22.993Z,82.96
2018-08-24T01:18:42.952Z,83.25
2018-08-24T01:19:04.318Z,83.61
2018-08-24T01:19:24.136Z,83.43
2018-08-24T01:19:44.069Z,83.25
2018-08-24T01:20:05.160Z,83.32
2018-08-24T01:20:24.705Z,83.19
2018-08-24T01:20:44.695Z,83.40
2018-08-24T01:21:06.085Z,83.22
2018-08-24T01:21:25.512Z,83.13
2018-08-24T01:21:45.866Z,83.39
2018-08-24T01:22:07.020Z,83.64
2018-08-24T01:22:26.439Z,83.74
2018-08-24T01:22:46.824Z,83.70
2018-08-24T01:23:07.432Z,83.58
2018-08-24T01:23:27.378Z,83.40
2018-08-24T01:23:47.759Z,83.84
2018-08-24T01:24:08.466Z,83.49
2018-08-24T01:24:28.402Z,83.31
2018-08-24T01:24:49.635Z,83.52
2018-08-24T01:25:09.294Z,83.47
2018-08-24T01:25:29.224Z,83.35
2018-08-24T01:25:50.553Z,83.32
2018-08-24T01:26:10.016Z,83.23
2018-08-24T01:26:30.663Z,83.23
2018-08-24T01:26:51.684Z,83.32
2018-08-24T01:27:10.608Z,83.32
2018-08-24T01:27:31.125Z,83.44
2018-08-24T01:27:51.795Z,83.22
2018-08-24T01:28:11.409Z,83.39
2018-08-24T01:28:31.300Z,83.47
2018-08-24T01:28:52.248Z,83.38
2018-08-24T01:29:12.155Z,83.40
2018-08-24T01:29:32.515Z,83.21
2018-08-24T01:29:53.244Z,83.30
2018-08-24T01:30:13.182Z,83.23
2018-08-24T01:30:34.303Z,83.15
2018-08-24T01:30:54.012Z,83.23
2018-08-24T01:31:14.089Z,83.27
2018-08-24T01:31:34.820Z,83.07
2018-08-24T01:31:54.440Z,83.04
2018-08-24T01:32:14.326Z,83.02
2018-08-24T01:32:35.751Z,83.02
2018-08-24T01:32:55.174Z,83.00
2018-08-24T01:33:15.814Z,83.04
2018-08-24T01:33:36.474Z,82.99
2018-08-24T01:33:55.919Z,82.98
2018-08-24T01:34:16.378Z,83.07
2018-08-24T01:34:37.400Z,82.96
2018-08-24T01:34:56.839Z,82.98
2018-08-24T01:35:17.194Z,82.93
2018-08-24T01:35:37.948Z,82.90
2018-08-24T01:35:58.017Z,82.95
2018-08-24T01:36:18.060Z,83.06
2018-08-24T01:36:38.235Z,83.10
2018-08-24T01:36:58.218Z,82.98
2018-08-24T01:37:19.398Z,83.02
2018-08-24T01:37:39.083Z,83.10
2018-08-24T01:37:59.143Z,83.20
2018-08-24T01:38:19.914Z,83.13
2018-08-24T01:38:39.824Z,83.18
2018-08-24T01:38:59.901Z,83.25
2018-08-24T01:39:20.680Z,83.20
2018-08-24T01:39:40.045Z,83.13
2018-08-24T01:40:00.475Z,83.20
2018-08-24T01:40:21.771Z,83.30
2018-08-24T01:40:41.342Z,83.37
2018-08-24T01:41:01.227Z,83.29
2018-08-24T01:41:22.209Z,83.19
2018-08-24T01:41:42.188Z,83.11
2018-08-24T01:42:02.939Z,83.06
2018-08-24T01:42:23.137Z,83.03
2018-08-24T01:42:43.005Z,83.10
2018-08-24T01:43:04.282Z,83.20
2018-08-24T01:43:24.051Z,83.06
2018-08-24T01:43:43.986Z,83.06
2018-08-24T01:44:05.126Z,83.10
2018-08-24T01:44:24.639Z,83.09
2018-08-24T01:44:44.615Z,83.10
2018-08-24T01:45:06.138Z,83.20
2018-08-24T01:45:25.062Z,83.12
2018-08-24T01:45:45.559Z,83.21
2018-08-24T01:46:06.973Z,83.26
2018-08-24T01:46:26.331Z,83.15
2018-08-24T01:46:46.870Z,83.11
2018-08-24T01:47:07.490Z,83.09
2018-08-24T01:47:27.020Z,83.03
2018-08-24T01:47:46.983Z,83.16
2018-08-24T01:48:07.680Z,83.08
2018-08-24T01:48:27.637Z,82.99
2018-08-24T01:48:48.665Z,82.95
2018-08-24T01:49:08.322Z,82.92
2018-08-24T01:49:28.271Z,83.02
2018-08-24T01:49:49.480Z,83.02
2018-08-24T01:50:09.498Z,83.08
2018-08-24T01:50:28.877Z,82.96
2018-08-24T01:50:50.001Z,82.95
2018-08-24T01:51:09.525Z,82.84
2018-08-24T01:51:29.539Z,82.80
2018-08-24T01:51:50.209Z,82.73
2018-08-24T01:52:09.639Z,82.69
2018-08-24T01:52:30.031Z,82.66
2018-08-24T01:52:50.853Z,82.64
2018-08-24T01:53:10.924Z,82.61
2018-08-24T01:53:30.878Z,82.61
2018-08-24T01:53:52.083Z,82.71
2018-08-24T01:54:11.610Z,82.58
2018-08-24T01:54:31.593Z,82.62
2018-08-24T01:54:52.571Z,82.57
2018-08-24T01:55:12.696Z,82.53
2018-08-24T01:55:32.596Z,82.50
2018-08-24T01:55:53.306Z,82.52
2018-08-24T01:56:13.164Z,82.44
2018-08-24T01:56:34.370Z,82.49
2018-08-24T01:56:54.012Z,82.48
2018-08-24T01:57:14.096Z,82.36
2018-08-24T01:57:34.479Z,82.34
2018-08-24T01:57:54.618Z,82.34
2018-08-24T01:58:14.496Z,82.30
2018-08-24T01:58:36.021Z,82.25
2018-08-24T01:58:55.101Z,82.23
2018-08-24T01:59:15.023Z,82.20
2018-08-24T01:59:36.364Z,82.20
2018-08-24T01:59:55.813Z,82.20
2018-08-24T02:00:36.756Z,82.13
2018-08-24T02:00:56.697Z,82.09
2018-08-24T02:01:37.531Z,82.11
2018-08-24T02:01:57.421Z,82.12
2018-08-24T02:02:17.779Z,82.11
2018-08-24T02:02:38.517Z,82.16
2018-08-24T02:02:58.446Z,82.13
2018-08-24T02:03:19.672Z,82.15
2018-08-24T02:03:39.454Z,82.14
2018-08-24T02:03:59.486Z,82.12
2018-08-24T02:04:20.290Z,82.17
2018-08-24T02:04:39.761Z,82.18
2018-08-24T02:05:00.205Z,82.19
2018-08-24T02:05:21.526Z,82.02
2018-08-24T02:05:41.231Z,82.20
2018-08-24T02:06:01.135Z,82.23
2018-08-24T02:06:22.278Z,82.27
2018-08-24T02:06:41.801Z,82.24
2018-08-24T02:07:01.746Z,82.27
2018-08-24T02:07:22.390Z,82.31
2018-08-24T02:07:42.482Z,82.30
2018-08-24T02:08:02.668Z,82.36
2018-08-24T02:08:22.919Z,82.36
2018-08-24T02:08:42.818Z,82.39
2018-08-24T02:09:04.177Z,82.62
2018-08-24T02:09:23.853Z,82.67
2018-08-24T02:09:43.937Z,82.72
2018-08-24T02:10:04.767Z,82.77
2018-08-24T02:10:24.412Z,82.83
2018-08-24T02:10:44.396Z,82.95
2018-08-24T02:11:05.590Z,83.01
2018-08-24T02:11:25.024Z,83.07
2018-08-24T02:11:45.501Z,83.13
2018-08-24T02:12:06.836Z,83.18
2018-08-24T02:12:26.299Z,83.20
2018-08-24T02:12:46.851Z,83.22
2018-08-24T02:13:07.376Z,83.28
2018-08-24T02:13:26.988Z,83.35
2018-08-24T02:13:46.943Z,83.46
2018-08-24T02:14:07.722Z,83.51
2018-08-24T02:14:27.658Z,83.59
2018-08-24T02:14:48.312Z,83.65
2018-08-24T02:15:08.500Z,83.72
2018-08-24T02:15:28.427Z,83.88
2018-08-24T02:15:49.549Z,83.87
2018-08-24T02:16:09.130Z,83.93
2018-08-24T02:16:29.051Z,83.93
2018-08-24T02:16:50.276Z,84.10
2018-08-24T02:17:09.737Z,84.08
2018-08-24T02:17:30.385Z,84.16
2018-08-24T02:17:51.191Z,84.21
2018-08-24T02:18:10.625Z,84.26
2018-08-24T02:18:31.104Z,84.31
2018-08-24T02:18:52.161Z,84.35
2018-08-24T02:19:11.567Z,84.42
2018-08-24T02:19:32.044Z,84.46
2018-08-24T02:19:52.693Z,84.46
2018-08-24T02:20:12.595Z,84.49
2018-08-24T02:20:33.401Z,84.52
2018-08-24T02:20:53.598Z,84.59
2018-08-24T02:21:13.458Z,84.63
2018-08-24T02:21:34.546Z,84.75
2018-08-24T02:21:54.415Z,84.79
2018-08-24T02:22:14.345Z,84.82
2018-08-24T02:22:35.767Z,84.84
2018-08-24T02:22:55.385Z,84.86
2018-08-24T02:23:15.255Z,84.92
2018-08-24T02:23:36.321Z,84.95
2018-08-24T02:23:55.675Z,84.99
2018-08-24T02:24:16.095Z,85.07
2018-08-24T02:24:37.235Z,85.07
2018-08-24T02:24:56.652Z,85.08
2018-08-24T02:25:17.341Z,85.15
2018-08-24T02:25:37.653Z,85.13
2018-08-24T02:25:57.519Z,85.16
2018-08-24T02:26:18.078Z,85.16
2018-08-24T02:26:38.461Z,85.19
2018-08-24T02:27:19.017Z,85.21
2018-08-24T02:27:38.761Z,85.23
2018-08-24T02:27:58.613Z,85.22
2018-08-24T02:28:20.037Z,85.21
2018-08-24T02:28:39.541Z,85.24
2018-08-24T02:28:59.952Z,85.20
2018-08-24T02:29:21.376Z,84.99
2018-08-24T02:29:41.068Z,85.19
2018-08-24T02:30:00.981Z,85.16
2018-08-24T02:30:22.110Z,85.09
2018-08-24T02:30:41.594Z,85.08
2018-08-24T02:31:02.521Z,85.12
2018-08-24T02:31:22.808Z,85.11
2018-08-24T02:31:42.853Z,85.14
2018-08-24T02:32:03.083Z,85.15
2018-08-24T02:32:23.342Z,85.12
2018-08-24T02:32:43.318Z,85.11
2018-08-24T02:33:04.507Z,85.19
2018-08-24T02:33:24.162Z,85.16
2018-08-24T02:33:44.108Z,85.18
2018-08-24T02:34:05.333Z,85.30
2018-08-24T02:34:24.780Z,85.24
2018-08-24T02:34:45.154Z,85.25
2018-08-24T02:35:06.435Z,85.29
2018-08-24T02:35:25.803Z,85.24
2018-08-24T02:35:46.285Z,85.23
2018-08-24T02:36:07.410Z,85.19
2018-08-24T02:36:26.823Z,85.15
2018-08-24T02:37:07.662Z,85.21
2018-08-24T02:37:27.551Z,85.25
2018-08-24T02:37:48.156Z,85.22
2018-08-24T02:38:28.072Z,85.28
2018-08-24T02:38:49.392Z,85.34
2018-08-24T02:39:09.315Z,85.39
2018-08-24T02:39:29.251Z,85.43
2018-08-24T02:39:50.615Z,85.45
2018-08-24T02:40:10.087Z,85.44
2018-08-24T02:40:30.535Z,85.52
2018-08-24T02:40:51.866Z,85.61
2018-08-24T02:41:11.403Z,85.85
2018-08-24T02:41:31.443Z,86.11
2018-08-24T02:41:51.979Z,85.85
2018-08-24T02:42:11.401Z,85.97
2018-08-24T02:42:31.778Z,85.95
2018-08-24T02:42:52.598Z,85.96
2018-08-24T02:43:12.531Z,86.03
2018-08-24T02:43:33.143Z,86.16
2018-08-24T02:43:53.300Z,86.13
2018-08-24T02:44:13.257Z,86.17
2018-08-24T02:44:34.272Z,86.18
2018-08-24T02:44:54.187Z,86.21
2018-08-24T02:45:14.524Z,86.24
2018-08-24T02:45:35.307Z,86.31
2018-08-24T02:45:54.801Z,86.34
2018-08-24T02:46:15.433Z,86.37
2018-08-24T02:46:36.321Z,86.38
2018-08-24T02:46:55.770Z,86.40
2018-08-24T02:47:16.318Z,86.44
2018-08-24T02:47:36.955Z,86.50
2018-08-24T02:47:56.388Z,86.54
2018-08-24T02:48:16.867Z,86.54
2018-08-24T02:48:37.631Z,86.61
2018-08-24T02:48:57.520Z,86.72
2018-08-24T02:49:18.115Z,86.72
2018-08-24T02:49:38.422Z,86.76
2018-08-24T02:49:58.565Z,86.85
2018-08-24T02:50:19.364Z,86.92
2018-08-24T02:50:38.998Z,86.97
2018-08-24T02:50:58.968Z,87.03
2018-08-24T02:51:20.396Z,87.08
2018-08-24T02:51:40.016Z,87.09
2018-08-24T02:51:59.905Z,87.17
2018-08-24T02:52:21.203Z,87.18
2018-08-24T02:52:40.554Z,87.24
2018-08-24T02:53:01.158Z,87.26
2018-08-24T02:53:21.849Z,87.37
2018-08-24T02:54:01.238Z,87.22
2018-08-24T02:54:22.391Z,87.56
2018-08-24T02:54:41.826Z,87.72
2018-08-24T02:55:02.538Z,87.70
2018-08-24T02:55:22.682Z,87.71
2018-08-24T02:55:42.615Z,87.77
2018-08-24T02:56:03.839Z,87.79
2018-08-24T02:56:23.525Z,87.86
2018-08-24T02:56:43.527Z,88.20
2018-08-24T02:57:04.139Z,88.34
2018-08-24T02:57:23.802Z,88.48
2018-08-24T02:57:43.756Z,88.36
2018-08-24T02:58:04.875Z,88.51
2018-08-24T02:58:24.473Z,88.62
2018-08-24T02:58:44.419Z,88.53
2018-08-24T02:59:05.908Z,88.60
2018-08-24T02:59:25.373Z,88.47
2018-08-24T02:59:45.976Z,88.69
2018-08-24T03:00:06.948Z,88.68
2018-08-24T03:00:26.362Z,88.72
2018-08-24T03:00:46.786Z,88.79
2018-08-24T03:01:07.494Z,88.82
2018-08-24T03:01:27.396Z,89.05
2018-08-24T03:01:47.887Z,89.08
2018-08-24T03:02:08.257Z,89.08
2018-08-24T03:02:28.756Z,89.07
2018-08-24T03:02:49.651Z,89.13
2018-08-24T03:03:09.086Z,89.26
2018-08-24T03:03:29.563Z,89.30
2018-08-24T03:03:50.905Z,89.30
2018-08-24T03:04:10.319Z,89.30
2018-08-24T03:04:30.801Z,89.34
2018-08-24T03:04:51.843Z,89.37
2018-08-24T03:05:11.392Z,89.57
2018-08-24T03:05:31.881Z,89.46
2018-08-24T03:05:52.560Z,89.49
2018-08-24T03:06:12.485Z,89.49
2018-08-24T03:06:32.842Z,89.51
2018-08-24T03:06:53.595Z,89.55
2018-08-24T03:07:13.462Z,89.58
2018-08-24T03:07:34.835Z,89.75
2018-08-24T03:07:54.289Z,89.62
2018-08-24T03:08:14.762Z,89.59
2018-08-24T03:08:35.967Z,89.71
2018-08-24T03:08:55.401Z,89.71
2018-08-24T03:09:15.957Z,89.70
2018-08-24T03:09:36.802Z,89.63
2018-08-24T03:09:56.236Z,90.04
2018-08-24T03:10:16.858Z,90.16
2018-08-24T03:10:37.442Z,90.00
2018-08-24T03:10:56.799Z,89.97
2018-08-24T03:11:17.240Z,89.97
2018-08-24T03:11:37.889Z,90.07
2018-08-24T03:11:57.931Z,90.23
2018-08-24T03:12:18.148Z,90.19
2018-08-24T03:12:38.369Z,90.22
2018-08-24T03:12:58.241Z,90.20
2018-08-24T03:13:19.410Z,90.22
2018-08-24T03:13:39.257Z,90.32
2018-08-24T03:13:59.391Z,89.99
2018-08-24T03:14:20.135Z,90.47
2018-08-24T03:14:39.503Z,90.43
2018-08-24T03:14:59.997Z,90.40
2018-08-24T03:15:21.309Z,90.40
2018-08-24T03:15:40.718Z,90.37
2018-08-24T03:16:01.430Z,90.39
2018-08-24T03:16:22.061Z,90.40
2018-08-24T03:17:01.492Z,90.41
2018-08-24T03:17:22.341Z,90.35
2018-08-24T03:17:42.246Z,90.30
2018-08-24T03:18:03.366Z,90.30
2018-08-24T03:18:23.014Z,90.28
2018-08-24T03:18:42.866Z,90.26
2018-08-24T03:19:04.196Z,90.24
2018-08-24T03:19:23.895Z,90.20
2018-08-24T03:19:43.933Z,90.15
2018-08-24T03:20:04.594Z,90.19
2018-08-24T03:20:24.231Z,90.23
2018-08-24T03:20:44.109Z,90.21
2018-08-24T03:21:05.433Z,90.18
2018-08-24T03:21:25.074Z,90.22
2018-08-24T03:21:45.000Z,90.28
2018-08-24T03:22:06.159Z,90.28
2018-08-24T03:22:25.584Z,90.29
2018-08-24T03:22:46.183Z,90.28
2018-08-24T03:23:06.985Z,90.34
2018-08-24T03:23:26.422Z,90.40
2018-08-24T03:23:46.893Z,90.52
2018-08-24T03:24:07.551Z,90.57
2018-08-24T03:24:27.443Z,90.66
2018-08-24T03:24:47.834Z,90.69
2018-08-24T03:25:08.659Z,90.73
2018-08-24T03:25:28.589Z,90.79
2018-08-24T03:25:50.007Z,90.94
2018-08-24T03:26:09.714Z,90.97
2018-08-24T03:26:29.616Z,91.04
2018-08-24T03:26:51.032Z,91.03
2018-08-24T03:27:10.468Z,91.04
2018-08-24T03:27:30.848Z,90.63
2018-08-24T03:27:51.979Z,90.92
2018-08-24T03:28:11.394Z,90.96
2018-08-24T03:28:31.879Z,90.92
2018-08-24T03:28:52.540Z,90.90
2018-08-24T03:29:12.495Z,90.90
2018-08-24T03:29:33.035Z,90.96
2018-08-24T03:29:53.208Z,91.01
2018-08-24T03:30:13.187Z,91.03
2018-08-24T03:30:34.488Z,91.02
2018-08-24T03:30:54.297Z,91.01
2018-08-24T03:31:14.194Z,91.06
2018-08-24T03:31:35.606Z,91.10
2018-08-24T03:31:54.954Z,91.13
2018-08-24T03:32:15.414Z,91.24
2018-08-24T03:32:36.843Z,91.30
2018-08-24T03:32:56.318Z,91.30
2018-08-24T03:33:16.758Z,91.33
2018-08-24T03:33:37.411Z,91.33
2018-08-24T03:33:57.305Z,91.36
2018-08-24T03:34:17.685Z,91.44
2018-08-24T03:34:38.396Z,91.46
2018-08-24T03:34:58.380Z,91.49
2018-08-24T03:35:19.770Z,91.51
2018-08-24T03:35:39.678Z,91.56
2018-08-24T03:35:59.719Z,91.65
2018-08-24T03:36:20.586Z,91.69
2018-08-24T03:36:39.948Z,91.71
2018-08-24T03:37:00.394Z,91.79
2018-08-24T03:37:21.615Z,91.83
2018-08-24T03:37:41.231Z,91.88
2018-08-24T03:38:01.218Z,91.87
2018-08-24T03:38:41.664Z,91.92
2018-08-24T03:39:02.480Z,91.92
2018-08-24T03:39:22.717Z,91.94
2018-08-24T03:39:42.693Z,92.01
2018-08-24T03:40:03.715Z,91.99
2018-08-24T03:40:23.509Z,92.02
2018-08-24T03:40:43.365Z,92.17
2018-08-24T03:41:04.518Z,92.10
2018-08-24T03:41:24.461Z,92.00
2018-08-24T03:41:44.356Z,91.95
2018-08-24T03:42:05.572Z,92.02
2018-08-24T03:42:25.232Z,92.07
2018-08-24T03:42:45.172Z,91.99
2018-08-24T03:43:06.606Z,91.99
2018-08-24T03:43:26.059Z,91.95
2018-08-24T03:43:46.519Z,91.94
2018-08-24T03:44:07.545Z,91.89
2018-08-24T03:44:27.061Z,91.98
2018-08-24T03:44:47.044Z,92.08
2018-08-24T03:45:07.695Z,92.18
2018-08-24T03:45:27.594Z,92.16
2018-08-24T03:45:48.018Z,92.16
2018-08-24T03:46:08.596Z,92.22
2018-08-24T03:46:28.515Z,92.29
2018-08-24T03:46:49.733Z,92.36
2018-08-24T03:47:09.372Z,92.46
2018-08-24T03:47:29.335Z,92.51
2018-08-24T03:47:50.766Z,92.55
2018-08-24T03:48:10.193Z,92.71
2018-08-24T03:48:30.580Z,92.68
2018-08-24T03:48:51.939Z,92.68
2018-08-24T03:49:11.367Z,92.75
2018-08-24T03:49:31.805Z,92.81
2018-08-24T03:49:52.475Z,92.81
2018-08-24T03:50:12.632Z,92.82
2018-08-24T03:50:32.584Z,92.84
2018-08-24T03:50:53.555Z,92.88
2018-08-24T03:51:13.530Z,92.83
2018-08-24T03:51:34.814Z,92.83
2018-08-24T03:51:54.631Z,92.93
2018-08-24T03:52:14.576Z,92.91
2018-08-24T03:52:36.050Z,92.84
2018-08-24T03:52:55.473Z,92.96
2018-08-24T03:53:15.955Z,92.96
2018-08-24T03:53:36.993Z,92.94
2018-08-24T03:53:56.416Z,92.95
2018-08-24T03:54:16.904Z,92.93
2018-08-24T03:54:37.702Z,92.93
2018-08-24T03:54:57.559Z,92.95
2018-08-24T03:55:18.121Z,92.95
2018-08-24T03:55:38.438Z,92.96
2018-08-24T03:55:58.410Z,92.99
2018-08-24T03:56:19.795Z,93.20
2018-08-24T03:56:39.263Z,93.24
2018-08-24T03:56:59.704Z,93.15
2018-08-24T03:57:23.663Z,93.27
2018-08-24T03:57:40.563Z,93.31
2018-08-24T03:58:00.930Z,93.28
2018-08-24T03:58:21.975Z,93.24
2018-08-24T03:58:41.916Z,93.22
2018-08-24T03:59:02.313Z,93.17
2018-08-24T03:59:22.658Z,93.17
2018-08-24T03:59:42.866Z,93.21
2018-08-24T04:00:03.237Z,93.24
2018-08-24T04:00:23.833Z,93.10
2018-08-24T04:00:43.328Z,93.32
2018-08-24T04:01:04.691Z,93.38
2018-08-24T04:01:24.345Z,93.51
2018-08-24T04:01:44.284Z,93.63
2018-08-24T04:02:05.397Z,93.68
2018-08-24T04:02:24.762Z,93.74
2018-08-24T04:02:45.457Z,93.68
2018-08-24T04:03:06.343Z,93.81
2018-08-24T04:03:25.961Z,93.84
2018-08-24T04:03:46.055Z,93.98
2018-08-24T04:04:07.050Z,93.90
2018-08-24T04:04:26.485Z,93.92
2018-08-24T04:04:47.132Z,93.95
2018-08-24T04:05:07.653Z,93.97
2018-08-24T04:05:47.076Z,94.01
2018-08-24T04:06:07.730Z,94.14
2018-08-24T04:06:28.098Z,94.16
2018-08-24T04:06:47.797Z,94.19
2018-08-24T04:07:08.481Z,94.30
2018-08-24T04:07:28.457Z,94.23
2018-08-24T04:07:49.667Z,94.33
2018-08-24T04:08:09.094Z,94.44
2018-08-24T04:08:29.578Z,94.54
2018-08-24T04:08:50.900Z,94.69
2018-08-24T04:09:10.617Z,94.92
2018-08-24T04:09:30.700Z,95.11
2018-08-24T04:09:51.520Z,95.04
2018-08-24T04:10:11.184Z,95.00
2018-08-24T04:10:31.637Z,95.04
2018-08-24T04:10:52.169Z,94.99
2018-08-24T04:11:11.574Z,95.00
2018-08-24T04:11:32.021Z,94.99
2018-08-24T04:11:52.677Z,95.03
2018-08-24T04:12:12.540Z,95.05
2018-08-24T04:12:33.216Z,95.21
2018-08-24T04:12:53.389Z,95.28
2018-08-24T04:13:13.447Z,95.16
2018-08-24T04:13:33.575Z,95.13
2018-08-24T04:13:54.117Z,95.08
2018-08-24T04:14:13.777Z,95.03
2018-08-24T04:14:34.014Z,94.99
2018-08-24T04:14:54.214Z,94.96
2018-08-24T04:15:14.713Z,94.93
2018-08-24T04:15:35.627Z,94.92
2018-08-24T04:15:55.026Z,94.92
2018-08-24T04:16:15.611Z,94.95
2018-08-24T04:16:36.396Z,95.00
2018-08-24T04:16:55.869Z,95.16
2018-08-24T04:17:16.327Z,95.09
2018-08-24T04:17:37.435Z,94.99
2018-08-24T04:17:56.791Z,94.99
2018-08-24T04:18:17.248Z,94.99
2018-08-24T04:18:38.011Z,94.98
2018-08-24T04:18:57.983Z,94.97
2018-08-24T04:19:19.185Z,94.96
2018-08-24T04:19:38.898Z,94.99
2018-08-24T04:19:58.838Z,95.04
2018-08-24T04:20:20.159Z,95.04
2018-08-24T04:20:39.981Z,94.96
2018-08-24T04:20:59.928Z,94.96
2018-08-24T04:21:21.070Z,94.88
2018-08-24T04:21:40.524Z,94.99
2018-08-24T04:22:01.081Z,94.96
2018-08-24T04:22:21.817Z,95.06
2018-08-24T04:22:41.223Z,94.96
2018-08-24T04:23:01.987Z,94.91
2018-08-24T04:23:22.366Z,94.92
2018-08-24T04:23:42.479Z,94.93
2018-08-24T04:24:02.720Z,94.96
2018-08-24T04:24:22.877Z,94.87
2018-08-24T04:24:42.786Z,94.83